Tamiment, Pennsylvania
Current Conditions -  °F | °C
As of 9:53 PM on Saturday 25 Oct 2014 (Local Time) from KMPO Reporting Station
Broken Clouds Broken Clouds  
Wind Chill: 57°   Ceiling: 9000
Heat Index: 57°   Visibility: 10mi
Dew Point: 45°   Wind: 12mph
Humidity: 64%   Direction: 270°W
Pressure: 29.61"   Gusts: 22mph
Location:  41.14°N, 75.03°W
Report Text: KMPO 260153Z AUTO 27010G19KT 10SM BKN090 14/07 A2961 RMK AO2 SLP027 T01390072
Loading
Personal Weather Stations






























Interactive Weather Map
Tropical Storm Tracking
New forecast layout! Learn more

10-Day Weather Forecast

Advertisements
Track Severe Weather on mobile